Time;durP1;ratioP1;P1;durP2;ratioP2;P2;SDS_P1;SDS_P2;PMS_P1;PMS_P2;Temp;Humidity;BMP_temperature;BMP_pressure;BME280_temperature;BME280_humidity;BME280_pressure;Samples;Min_cycle;Max_cycle;Signal;HPM_P1;HPM_P2
2023/01/29 00:00:09;;;;;;;6.57;5.10;;;-0.10;99.90;;;;;;6238200;23;20184;-83
2023/01/29 00:02:35;;;;;;;7.88;5.03;;;-0.20;99.90;;;;;;6239626;23;20172;-83
2023/01/29 00:05:01;;;;;;;8.35;4.47;;;-0.20;99.90;;;;;;6239815;23;20173;-85
2023/01/29 00:07:27;;;;;;;10.35;6.00;;;-0.20;99.90;;;;;;6239339;23;20156;-82
2023/01/29 00:09:52;;;;;;;10.93;5.20;;;-0.10;99.90;;;;;;6241292;23;20163;-84
2023/01/29 00:12:18;;;;;;;6.40;4.13;;;-0.20;99.90;;;;;;6240895;23;20176;-85
2023/01/29 00:14:43;;;;;;;7.40;5.00;;;-0.10;99.90;;;;;;6244003;23;20668;-82
2023/01/29 00:17:09;;;;;;;7.07;5.60;;;-0.10;99.90;;;;;;6240643;23;20164;-82
2023/01/29 00:19:35;;;;;;;6.00;4.97;;;0.00;99.90;;;;;;6238438;23;20495;-81
2023/01/29 00:22:00;;;;;;;6.40;4.90;;;0.00;99.90;;;;;;6237199;23;20152;-83
2023/01/29 00:24:26;;;;;;;9.20;5.53;;;0.00;99.90;;;;;;6234844;23;20164;-83
2023/01/29 00:26:51;;;;;;;6.40;5.10;;;0.00;99.90;;;;;;6238208;23;20243;-82
2023/01/29 00:29:17;;;;;;;11.93;7.73;;;0.00;99.90;;;;;;6239513;23;20183;-81
2023/01/29 00:31:44;;;;;;;9.80;5.53;;;0.00;99.90;;;;;;6236893;23;20292;-84
2023/01/29 00:34:09;;;;;;;6.55;4.97;;;0.10;99.90;;;;;;6243413;22;20137;-83
2023/01/29 00:36:35;;;;;;;7.40;4.77;;;0.00;99.90;;;;;;6240477;23;20517;-84
2023/01/29 00:39:09;;;;;;;11.70;5.87;;;0.00;99.90;;;;;;6241476;23;20180;-82
2023/01/29 00:47:04;;;;;;;6.85;4.80;;;-0.10;99.90;;;;;;6243140;23;20144;-83
2023/01/29 00:49:29;;;;;;;12.43;5.35;;;-0.10;99.90;;;;;;6243513;23;20167;-85
2023/01/29 00:54:39;;;;;;;9.18;5.25;;;-0.20;99.90;;;;;;6238700;23;20144;-84
2023/01/29 00:57:04;;;;;;;8.77;4.87;;;-0.20;99.90;;;;;;6241332;23;20497;-83
2023/01/29 00:59:30;;;;;;;10.67;5.50;;;-0.20;99.90;;;;;;6240570;23;20254;-82
2023/01/29 01:04:40;;;;;;;6.70;4.85;;;0.00;99.90;;;;;;6239796;23;20542;-85
2023/01/29 01:07:06;;;;;;;7.50;4.70;;;-0.10;99.90;;;;;;6239270;23;20161;-83
2023/01/29 01:12:18;;;;;;;6.78;4.95;;;-0.20;99.90;;;;;;6239287;23;20609;-83
2023/01/29 01:14:44;;;;;;;10.47;5.43;;;-0.10;99.90;;;;;;6239445;22;20137;-85
2023/01/29 01:17:10;;;;;;;9.00;5.50;;;-0.10;99.90;;;;;;6235723;23;20399;-84
2023/01/29 01:19:35;;;;;;;5.90;4.30;;;-0.10;99.90;;;;;;6238112;23;20169;-83
2023/01/29 01:22:03;;;;;;;7.73;5.20;;;-0.10;99.90;;;;;;6234987;23;20144;-84
2023/01/29 01:24:29;;;;;;;9.18;4.55;;;-0.10;99.90;;;;;;6232249;22;20128;-81
2023/01/29 01:26:54;;;;;;;7.03;4.87;;;-0.20;99.90;;;;;;6232352;23;20159;-82
2023/01/29 01:29:20;;;;;;;8.53;4.37;;;-0.40;99.90;;;;;;6232864;23;20148;-83
2023/01/29 01:31:45;;;;;;;9.23;5.23;;;-0.50;99.90;;;;;;6237468;23;20629;-83
2023/01/29 01:34:11;;;;;;;7.00;4.73;;;-0.60;99.90;;;;;;6236803;23;20156;-84
2023/01/29 01:36:36;;;;;;;5.80;5.03;;;-0.60;99.90;;;;;;6241327;23;20188;-85
2023/01/29 01:39:02;;;;;;;8.83;4.47;;;-0.70;99.90;;;;;;6249420;23;20182;-82
2023/01/29 01:41:29;;;;;;;8.25;4.30;;;-0.70;99.90;;;;;;6243294;22;20975;-86
2023/01/29 01:43:56;;;;;;;6.07;4.25;;;-0.70;99.90;;;;;;6243716;22;20140;-83
2023/01/29 01:46:24;;;;;;;8.93;4.50;;;-0.70;99.90;;;;;;6240775;22;20161;-84
2023/01/29 01:49:00;;;;;;;7.18;5.05;;;-0.70;99.90;;;;;;6240052;23;20191;-85
2023/01/29 01:51:29;;;;;;;10.38;5.10;;;-0.70;99.90;;;;;;6240523;22;20136;-82
2023/01/29 01:54:02;;;;;;;6.65;4.78;;;-0.80;99.90;;;;;;6236227;23;20163;-84
2023/01/29 01:56:37;;;;;;;4.95;4.05;;;-0.90;99.90;;;;;;6239325;23;20183;-84
2023/01/29 01:59:05;;;;;;;9.38;5.07;;;-1.00;99.90;;;;;;6240656;23;20164;-85
2023/01/29 02:01:31;;;;;;;7.63;4.70;;;-1.00;99.90;;;;;;6236166;23;20562;-82
2023/01/29 02:09:45;;;;;;;7.43;4.35;;;-0.90;99.90;;;;;;6241456;23;20151;-82
2023/01/29 02:12:12;;;;;;;7.65;5.53;;;-0.90;99.90;;;;;;6240551;23;20499;-85
2023/01/29 02:14:40;;;;;;;6.78;4.63;;;-0.80;99.90;;;;;;6237373;23;20222;-81
2023/01/29 02:17:08;;;;;;;9.27;3.97;;;-0.70;99.90;;;;;;6244056;22;20283;-83
2023/01/29 02:19:49;;;;;;;6.70;4.20;;;-0.70;99.90;;;;;;6242298;23;20235;-82
2023/01/29 02:22:54;;;;;;;4.70;4.18;;;-0.60;99.90;;;;;;6236762;23;20148;-82
2023/01/29 02:25:41;;;;;;;3.58;3.10;;;-0.70;99.90;;;;;;6237646;23;20172;-82
2023/01/29 02:28:20;;;;;;;5.10;4.50;;;-0.80;99.90;;;;;;6246198;23;20143;-83
2023/01/29 02:31:04;;;;;;;7.90;5.03;;;-0.90;99.90;;;;;;6260143;23;20141;-82
2023/01/29 02:33:40;;;;;;;7.63;5.05;;;-1.00;99.90;;;;;;6243930;23;20160;-83
2023/01/29 02:36:27;;;;;;;8.75;4.57;;;-1.00;99.90;;;;;;6240490;23;20183;-84
2023/01/29 02:39:28;;;;;;;5.80;4.35;;;-1.00;99.90;;;;;;6241171;23;20175;-85
2023/01/29 02:42:05;;;;;;;9.45;4.45;;;-1.00;99.90;;;;;;6241222;23;20203;-84
2023/01/29 02:44:59;;;;;;;13.55;4.57;;;-1.00;99.90;;;;;;6239110;22;20212;-83
2023/01/29 02:47:54;;;;;;;6.53;5.65;;;-1.10;99.90;;;;;;6239126;23;20186;-84
2023/01/29 02:50:33;;;;;;;6.68;4.40;;;-1.20;99.90;;;;;;6233155;23;20148;-83
2023/01/29 02:53:22;;;;;;;9.48;5.45;;;-1.20;99.90;;;;;;6238636;22;20176;-84
2023/01/29 02:55:52;;;;;;;14.70;5.00;;;-1.30;99.90;;;;;;6242469;22;20174;-86
2023/01/29 02:58:31;;;;;;;8.60;5.28;;;-1.30;99.90;;;;;;6243320;23;20235;-85
2023/01/29 03:01:06;;;;;;;5.13;4.18;;;-1.30;99.90;;;;;;6262406;22;20153;-81
2023/01/29 03:03:40;;;;;;;9.30;4.65;;;-1.30;99.90;;;;;;6250665;22;20161;-85
2023/01/29 03:06:19;;;;;;;7.15;4.60;;;-1.30;99.90;;;;;;6242216;22;20196;-83
2023/01/29 03:09:08;;;;;;;6.38;4.55;;;-1.30;99.90;;;;;;6235568;23;20148;-82
2023/01/29 03:11:39;;;;;;;13.90;5.03;;;-1.30;99.90;;;;;;6239121;22;20180;-82
2023/01/29 03:17:26;;;;;;;6.05;3.80;;;-1.30;99.90;;;;;;6235205;23;20179;-84
2023/01/29 03:19:53;;;;;;;5.90;4.68;;;-1.20;99.90;;;;;;6239276;22;20254;-82
2023/01/29 03:22:22;;;;;;;10.43;5.10;;;-1.20;99.90;;;;;;6238786;23;20153;-81
2023/01/29 03:33:22;;;;;;;7.35;4.10;;;-1.00;99.90;;;;;;6234494;23;20175;-84
2023/01/29 03:35:59;;;;;;;7.07;3.90;;;-1.00;99.90;;;;;;6231873;23;20187;-84
2023/01/29 03:38:28;;;;;;;7.00;4.88;;;-1.10;99.90;;;;;;6229692;22;20144;-84
2023/01/29 03:41:24;;;;;;;6.25;4.13;;;-1.10;99.90;;;;;;6231361;23;20152;-82
2023/01/29 03:44:25;;;;;;;5.60;5.05;;;-1.20;99.90;;;;;;6231445;23;20149;-85
2023/01/29 03:47:18;;;;;;;7.72;4.05;;;-1.10;99.90;;;;;;6232528;22;20283;-84
2023/01/29 03:50:22;;;;;;;5.20;4.00;;;-1.10;99.90;;;;;;6234209;23;20164;-82
2023/01/29 03:53:01;;;;;;;7.25;4.78;;;-1.10;99.90;;;;;;6185159;22;20160;-81
2023/01/29 03:55:54;;;;;;;6.28;4.57;;;-1.10;99.90;;;;;;6232603;23;20266;-83
2023/01/29 03:58:29;;;;;;;10.90;4.53;;;-1.10;99.90;;;;;;6233333;22;20194;-83
2023/01/29 04:01:04;;;;;;;5.72;4.25;;;-1.10;99.90;;;;;;6231112;23;20140;-87
2023/01/29 04:03:36;;;;;;;9.82;7.30;;;-1.30;99.90;;;;;;6233569;23;20158;-85
2023/01/29 04:06:19;;;;;;;6.95;4.70;;;-1.50;99.90;;;;;;6236949;22;20176;-81
2023/01/29 04:09:20;;;;;;;6.28;4.43;;;-1.60;99.90;;;;;;6233931;22;20562;-82
2023/01/29 04:11:53;;;;;;;6.68;4.10;;;-1.60;99.90;;;;;;6132327;22;20159;-83
2023/01/29 04:14:20;;;;;;;9.52;4.63;;;-1.60;99.90;;;;;;6231426;23;20152;-82
2023/01/29 04:16:53;;;;;;;5.32;4.03;;;-1.50;99.90;;;;;;6235733;22;20195;-82
2023/01/29 04:19:19;;;;;;;10.90;4.43;;;-1.50;99.90;;;;;;6230994;23;20279;-82
2023/01/29 04:21:49;;;;;;;8.57;4.30;;;-1.40;99.90;;;;;;6233382;23;20180;-84
2023/01/29 04:24:15;;;;;;;7.47;4.57;;;-1.40;99.90;;;;;;6239147;22;20530;-82
2023/01/29 04:26:49;;;;;;;7.28;4.63;;;-1.30;99.90;;;;;;6237917;22;20168;-84
2023/01/29 04:29:42;;;;;;;7.88;5.07;;;-1.40;99.90;;;;;;6241795;23;20204;-83
2023/01/29 04:32:19;;;;;;;8.40;4.70;;;-1.40;99.90;;;;;;6248102;22;20143;-80
2023/01/29 04:35:10;;;;;;;5.72;3.60;;;-1.40;99.90;;;;;;6239376;22;21017;-84
2023/01/29 04:38:07;;;;;;;8.45;4.50;;;-1.50;99.90;;;;;;6234300;23;20443;-82
2023/01/29 04:40:45;;;;;;;6.85;3.90;;;-1.50;99.90;;;;;;6227937;23;20191;-82
2023/01/29 04:43:34;;;;;;;5.60;3.97;;;-1.60;99.90;;;;;;6230430;23;20148;-84
2023/01/29 04:46:09;;;;;;;5.40;3.95;;;-1.50;99.90;;;;;;6232048;22;20156;-84
2023/01/29 04:49:04;;;;;;;8.30;5.00;;;-1.50;99.90;;;;;;6234373;22;20193;-84
2023/01/29 04:51:52;;;;;;;4.55;3.83;;;-1.40;99.90;;;;;;6231613;23;20286;-83
2023/01/29 04:54:27;;;;;;;4.13;3.72;;;-1.40;99.90;;;;;;6233636;23;20156;-82
2023/01/29 04:57:30;;;;;;;8.00;4.43;;;-1.40;99.90;;;;;;6237451;22;20172;-83
2023/01/29 05:00:12;;;;;;;5.75;4.20;;;-1.30;99.90;;;;;;6237945;23;20183;-84
2023/01/29 05:02:41;;;;;;;4.28;3.35;;;-1.20;99.90;;;;;;6230935;22;20159;-85
2023/01/29 05:05:08;;;;;;;6.70;3.72;;;-1.10;99.90;;;;;;6245643;23;20168;-81
2023/01/29 05:07:37;;;;;;;4.85;4.15;;;-1.10;99.90;;;;;;6260669;22;20149;-80
2023/01/29 05:10:05;;;;;;;7.28;4.47;;;-1.10;99.90;;;;;;6256950;22;20210;-84
2023/01/29 05:12:32;;;;;;;5.72;4.10;;;-1.10;99.90;;;;;;6248763;23;20248;-85
2023/01/29 05:15:01;;;;;;;6.22;4.80;;;-1.10;99.90;;;;;;6246105;22;20180;-83
2023/01/29 05:17:27;;;;;;;5.63;4.03;;;-1.10;99.90;;;;;;6247087;22;20196;-84
2023/01/29 05:19:55;;;;;;;6.67;4.77;;;-1.00;99.90;;;;;;6244734;22;20254;-84
2023/01/29 05:22:22;;;;;;;7.43;4.30;;;-0.90;99.90;;;;;;6243650;23;20371;-82
2023/01/29 05:24:48;;;;;;;6.88;3.92;;;-0.80;99.90;;;;;;6242573;23;20144;-82
2023/01/29 05:30:03;;;;;;;5.10;4.00;;;-0.70;99.90;;;;;;6244943;23;20206;-85
2023/01/29 05:32:29;;;;;;;5.63;3.60;;;-0.60;99.90;;;;;;6243106;22;20148;-84
2023/01/29 05:34:54;;;;;;;6.23;4.37;;;-0.70;99.90;;;;;;6237379;23;20168;-83
2023/01/29 05:37:20;;;;;;;8.63;4.57;;;-0.70;99.90;;;;;;6242868;23;20994;-82
2023/01/29 05:39:45;;;;;;;7.50;4.43;;;-0.80;99.90;;;;;;6247820;23;20960;-84
2023/01/29 05:42:11;;;;;;;7.83;5.37;;;-0.90;99.90;;;;;;6245216;23;20206;-83
2023/01/29 05:44:36;;;;;;;7.93;4.83;;;-1.00;99.90;;;;;;6245629;23;20149;-85
2023/01/29 05:47:02;;;;;;;11.13;5.23;;;-1.10;99.90;;;;;;6244349;23;20546;-84
2023/01/29 05:49:28;;;;;;;6.47;4.80;;;-1.20;99.90;;;;;;6240044;23;20172;-85
2023/01/29 05:51:53;;;;;;;7.47;4.63;;;-1.30;99.90;;;;;;6242017;23;20208;-84
2023/01/29 05:54:19;;;;;;;7.53;5.10;;;-1.30;99.90;;;;;;6244254;23;20144;-82
2023/01/29 05:56:44;;;;;;;8.43;4.90;;;-1.30;99.90;;;;;;6243053;23;20314;-86
2023/01/29 05:59:10;;;;;;;9.80;5.63;;;-1.20;99.90;;;;;;6249048;23;20180;-83
2023/01/29 06:01:35;;;;;;;5.73;4.47;;;-1.20;99.90;;;;;;6253230;23;20171;-81
2023/01/29 06:04:01;;;;;;;7.57;4.73;;;-1.10;99.90;;;;;;6244763;23;20152;-83
2023/01/29 06:06:27;;;;;;;7.67;4.80;;;-1.00;99.90;;;;;;6232209;23;20715;-83
2023/01/29 06:08:52;;;;;;;3.73;3.23;;;-1.00;99.90;;;;;;6242220;23;20144;-85
2023/01/29 06:11:18;;;;;;;5.37;4.10;;;-0.90;99.90;;;;;;6242747;23;20152;-83
2023/01/29 06:13:44;;;;;;;7.57;4.80;;;-0.90;99.90;;;;;;6238505;23;20152;-83
2023/01/29 06:16:12;;;;;;;8.65;4.00;;;-1.10;99.90;;;;;;6238766;23;20200;-83
2023/01/29 06:18:38;;;;;;;6.00;3.80;;;-1.20;99.90;;;;;;6241488;22;20184;-82
2023/01/29 06:21:05;;;;;;;5.80;4.50;;;-1.20;99.90;;;;;;6237353;23;20144;-83
2023/01/29 06:23:31;;;;;;;10.80;5.20;;;-1.20;99.90;;;;;;6234876;23;20144;-83
2023/01/29 06:26:04;;;;;;;6.60;4.43;;;-1.30;99.90;;;;;;6241994;23;20161;-83
2023/01/29 06:28:30;;;;;;;11.15;5.50;;;-1.40;99.90;;;;;;6239076;23;20987;-83
2023/01/29 06:31:00;;;;;;;8.37;5.57;;;-1.40;99.90;;;;;;6236679;23;20215;-84
2023/01/29 06:33:26;;;;;;;7.70;5.20;;;-1.30;99.90;;;;;;6240147;23;20464;-83
2023/01/29 06:35:56;;;;;;;6.23;4.00;;;-1.30;99.90;;;;;;6240665;23;20165;-85
2023/01/29 06:38:22;;;;;;;5.65;3.75;;;-1.40;99.90;;;;;;6236291;23;20207;-83
2023/01/29 06:40:48;;;;;;;6.45;4.80;;;-1.60;99.90;;;;;;6240057;23;20231;-83
2023/01/29 06:43:13;;;;;;;8.40;4.43;;;-1.70;99.90;;;;;;6240282;23;20195;-84
2023/01/29 06:45:49;;;;;;;7.63;4.57;;;-1.80;99.90;;;;;;6238824;23;20228;-83
2023/01/29 06:48:15;;;;;;;5.35;4.22;;;-1.90;99.90;;;;;;6239722;22;20508;-82
2023/01/29 06:50:40;;;;;;;7.23;4.77;;;-1.80;99.90;;;;;;6239595;23;20160;-84
2023/01/29 06:53:05;;;;;;;5.53;4.57;;;-1.80;99.90;;;;;;6236011;23;20163;-83
2023/01/29 06:55:31;;;;;;;9.87;4.50;;;-1.70;99.90;;;;;;6235398;23;20544;-83
2023/01/29 06:57:56;;;;;;;5.57;4.57;;;-1.70;99.90;;;;;;6246195;23;20207;-84
2023/01/29 07:00:22;;;;;;;6.33;4.73;;;-1.80;99.90;;;;;;6240084;23;20184;-81
2023/01/29 07:02:48;;;;;;;11.90;5.00;;;-1.90;99.90;;;;;;6239714;23;20206;-85
2023/01/29 07:05:14;;;;;;;8.30;5.00;;;-1.90;99.90;;;;;;6245110;23;20168;-83
2023/01/29 07:07:39;;;;;;;6.87;4.70;;;-1.80;99.90;;;;;;6240119;23;20203;-83
2023/01/29 07:10:06;;;;;;;7.87;5.07;;;-1.60;99.90;;;;;;6242001;23;20159;-82
2023/01/29 07:12:31;;;;;;;6.60;4.05;;;-1.50;99.90;;;;;;6242381;23;20195;-81
2023/01/29 07:14:57;;;;;;;7.20;4.43;;;-1.40;99.90;;;;;;6242340;23;20206;-83
2023/01/29 07:17:22;;;;;;;6.13;4.33;;;-1.30;99.90;;;;;;6252116;22;20156;-80
2023/01/29 07:19:48;;;;;;;5.77;4.90;;;-1.10;99.90;;;;;;6245664;23;20177;-84
2023/01/29 07:22:15;;;;;;;6.63;3.90;;;-1.00;99.90;;;;;;6245089;23;20492;-84
2023/01/29 07:24:40;;;;;;;8.07;4.38;;;-1.00;99.90;;;;;;6245928;22;20145;-84
2023/01/29 07:27:06;;;;;;;6.03;4.50;;;-1.10;99.90;;;;;;6248626;22;20546;-88
2023/01/29 07:29:31;;;;;;;6.17;4.57;;;-1.20;99.90;;;;;;6264286;22;20149;-81
2023/01/29 07:31:57;;;;;;;9.10;4.83;;;-1.10;99.90;;;;;;6258304;22;20161;-85
2023/01/29 07:34:22;;;;;;;7.80;4.80;;;-1.00;99.90;;;;;;6250535;23;20504;-82
2023/01/29 07:36:51;;;;;;;8.13;4.30;;;-0.90;99.90;;;;;;6247558;23;20528;-82
2023/01/29 07:39:17;;;;;;;6.38;4.85;;;-0.90;99.90;;;;;;6251454;22;20187;-83
2023/01/29 07:41:42;;;;;;;8.50;5.00;;;-0.90;99.90;;;;;;6246463;23;20154;-84
2023/01/29 07:44:08;;;;;;;8.83;4.63;;;-0.90;99.90;;;;;;6246602;23;20149;-84
2023/01/29 07:46:33;;;;;;;7.00;4.60;;;-0.80;99.90;;;;;;6267037;22;20475;-82
2023/01/29 07:48:59;;;;;;;8.53;4.33;;;-0.60;99.90;;;;;;6266017;22;20160;-82
2023/01/29 07:51:24;;;;;;;5.63;4.53;;;-0.70;99.90;;;;;;6255700;22;20155;-84
2023/01/29 07:53:50;;;;;;;6.93;4.40;;;-0.70;99.90;;;;;;6250824;23;20614;-84
2023/01/29 07:56:15;;;;;;;7.87;4.40;;;-0.70;99.90;;;;;;6249342;23;20164;-84
2023/01/29 07:58:41;;;;;;;4.80;4.30;;;-0.70;99.90;;;;;;6248416;23;20172;-84
2023/01/29 08:01:07;;;;;;;10.43;5.03;;;-0.60;99.90;;;;;;6246863;23;20149;-84
2023/01/29 08:03:32;;;;;;;7.30;4.10;;;-0.60;99.90;;;;;;6247144;23;20606;-82
2023/01/29 08:05:58;;;;;;;4.83;3.63;;;-0.60;99.90;;;;;;6243769;23;20391;-84
2023/01/29 08:08:24;;;;;;;4.70;3.70;;;-0.60;99.90;;;;;;6243847;23;20267;-82
2023/01/29 08:10:50;;;;;;;6.15;3.92;;;-0.40;99.90;;;;;;6242083;23;20152;-85
2023/01/29 08:13:15;;;;;;;6.93;4.57;;;-0.30;99.90;;;;;;6244610;23;20153;-80
2023/01/29 08:15:44;;;;;;;5.80;3.70;;;-0.40;99.90;;;;;;6240860;23;20666;-82
2023/01/29 08:18:11;;;;;;;8.20;4.65;;;-0.40;99.90;;;;;;6240862;23;20168;-84
2023/01/29 08:20:38;;;;;;;5.82;4.15;;;-0.50;99.90;;;;;;6245483;23;20180;-81
2023/01/29 08:23:06;;;;;;;8.57;4.75;;;-0.50;99.90;;;;;;6240750;23;20176;-83
2023/01/29 08:25:32;;;;;;;6.90;4.90;;;-0.50;99.90;;;;;;6241089;22;20168;-83
2023/01/29 08:27:59;;;;;;;7.18;4.72;;;-0.50;99.90;;;;;;6242917;22;20152;-82
2023/01/29 08:30:26;;;;;;;9.10;5.68;;;-0.50;99.90;;;;;;6242402;23;20232;-85
2023/01/29 08:32:52;;;;;;;7.68;4.72;;;-0.50;99.90;;;;;;6239979;23;20926;-85
2023/01/29 08:35:17;;;;;;;7.23;5.40;;;-0.50;99.90;;;;;;6241395;23;20164;-85
2023/01/29 08:37:55;;;;;;;7.30;5.30;;;-0.40;99.90;;;;;;6241683;23;20706;-84
2023/01/29 08:40:21;;;;;;;8.45;4.70;;;-0.20;99.90;;;;;;6239514;23;20200;-85
2023/01/29 08:42:46;;;;;;;10.07;5.70;;;-0.10;99.90;;;;;;6241578;22;20152;-82
2023/01/29 08:45:12;;;;;;;7.30;4.97;;;0.00;99.90;;;;;;6240965;23;20238;-84
2023/01/29 08:47:37;;;;;;;12.67;7.60;;;0.00;99.90;;;;;;6239291;23;20153;-84
2023/01/29 08:50:03;;;;;;;4.93;4.43;;;0.10;99.90;;;;;;6243048;23;20137;-83
2023/01/29 08:52:29;;;;;;;7.80;5.70;;;0.30;99.90;;;;;;6240798;23;21030;-83
2023/01/29 08:54:54;;;;;;;6.40;4.00;;;0.30;99.90;;;;;;6238530;23;20414;-82
2023/01/29 08:57:20;;;;;;;8.13;4.50;;;0.50;99.90;;;;;;6240919;23;20631;-85
2023/01/29 08:59:45;;;;;;;8.00;5.10;;;0.50;99.90;;;;;;6263158;22;20207;-81
2023/01/29 09:02:11;;;;;;;7.27;4.63;;;0.70;99.90;;;;;;6252028;23;20161;-85
2023/01/29 09:04:36;;;;;;;7.07;5.03;;;0.70;99.90;;;;;;6245460;23;20194;-85
2023/01/29 09:07:02;;;;;;;25.30;15.17;;;1.00;99.90;;;;;;6255197;23;20160;-86
2023/01/29 09:09:27;;;;;;;5.80;4.63;;;1.20;99.90;;;;;;6246387;23;20701;-83
2023/01/29 09:11:53;;;;;;;6.43;5.10;;;1.50;99.90;;;;;;6242216;23;20175;-85
2023/01/29 09:14:18;;;;;;;16.93;10.40;;;1.60;99.90;;;;;;6240530;23;20152;-81
2023/01/29 09:16:44;;;;;;;7.73;4.93;;;2.10;99.90;;;;;;6242560;23;20523;-83
2023/01/29 09:19:09;;;;;;;6.37;4.40;;;2.20;99.90;;;;;;6240948;23;20526;-84
2023/01/29 09:21:35;;;;;;;7.40;4.40;;;2.30;99.90;;;;;;6242915;23;20151;-83
2023/01/29 09:24:00;;;;;;;7.80;4.50;;;2.50;99.90;;;;;;6240707;23;20145;-85
2023/01/29 09:26:26;;;;;;;7.17;5.30;;;2.70;99.90;;;;;;6238455;23;20171;-83
2023/01/29 09:28:51;;;;;;;9.33;5.57;;;3.10;99.90;;;;;;6245736;23;20529;-83
2023/01/29 09:31:17;;;;;;;8.20;4.50;;;3.50;99.90;;;;;;6235438;23;20160;-84
2023/01/29 09:33:43;;;;;;;6.37;5.17;;;3.80;99.90;;;;;;6242389;23;20144;-81
2023/01/29 09:36:08;;;;;;;7.00;4.00;;;3.40;99.90;;;;;;6240662;23;20191;-84
2023/01/29 09:38:34;;;;;;;7.30;5.57;;;4.00;99.90;;;;;;6240330;23;20180;-81
2023/01/29 09:41:07;;;;;;;6.10;4.97;;;4.60;99.90;;;;;;6236637;23;20548;-85
2023/01/29 09:43:47;;;;;;;5.88;4.90;;;4.70;99.90;;;;;;6234104;22;20133;-83
2023/01/29 09:46:38;;;;;;;5.80;4.38;;;4.70;99.90;;;;;;6237322;23;20199;-84
2023/01/29 09:49:14;;;;;;;5.82;4.60;;;5.30;99.90;;;;;;6232319;23;20160;-83
2023/01/29 09:51:43;;;;;;;5.28;3.78;;;5.80;99.90;;;;;;6235916;23;20160;-82
2023/01/29 09:54:22;;;;;;;5.70;4.82;;;6.40;99.90;;;;;;6236450;23;20541;-83
2023/01/29 09:56:52;;;;;;;9.43;5.68;;;6.80;99.90;;;;;;6236974;22;20172;-86
2023/01/29 09:59:21;;;;;;;9.25;5.53;;;6.70;99.90;;;;;;6236831;22;20175;-86
2023/01/29 10:02:05;;;;;;;5.75;4.13;;;6.30;99.90;;;;;;6241891;22;20148;-85
2023/01/29 10:05:03;;;;;;;8.13;4.78;;;6.00;99.90;;;;;;6239708;22;20857;-84
2023/01/29 10:08:05;;;;;;;8.30;5.45;;;4.60;99.90;;;;;;6236500;23;20536;-83
2023/01/29 10:11:00;;;;;;;6.63;5.72;;;3.30;99.90;;;;;;6237613;23;20356;-84
2023/01/29 10:13:48;;;;;;;16.30;8.00;;;3.30;99.90;;;;;;6236890;22;20148;-83
2023/01/29 10:16:31;;;;;;;7.65;4.38;;;3.10;99.90;;;;;;6232423;22;20190;-85
2023/01/29 10:19:11;;;;;;;5.60;4.03;;;2.40;99.90;;;;;;6238848;22;20611;-84
2023/01/29 10:22:18;;;;;;;8.32;5.05;;;2.10;99.90;;;;;;6244842;22;20585;-83
2023/01/29 10:24:51;;;;;;;6.00;4.43;;;2.20;99.90;;;;;;6245724;23;20144;-85
2023/01/29 10:27:17;;;;;;;6.55;5.22;;;2.00;99.90;;;;;;6259507;23;20632;-83
2023/01/29 10:29:45;;;;;;;5.88;4.50;;;1.80;99.90;;;;;;6254125;23;20164;-84
2023/01/29 10:32:20;;;;;;;7.57;5.45;;;1.70;99.90;;;;;;6256781;22;20152;-85
2023/01/29 10:34:56;;;;;;;9.80;6.30;;;2.00;99.90;;;;;;6240469;22;20147;-87
2023/01/29 10:37:25;;;;;;;10.15;6.63;;;2.20;99.90;;;;;;6238839;22;20147;-86
2023/01/29 10:39:51;;;;;;;7.18;4.65;;;2.20;99.90;;;;;;6237354;23;20191;-85
2023/01/29 10:42:28;;;;;;;5.87;4.70;;;2.30;99.90;;;;;;6234674;23;20152;-84
2023/01/29 10:45:16;;;;;;;7.40;5.28;;;2.30;99.90;;;;;;6234685;23;20203;-85
2023/01/29 10:47:51;;;;;;;7.63;4.60;;;2.50;99.90;;;;;;6235406;23;20210;-84
2023/01/29 10:50:39;;;;;;;5.82;4.43;;;2.90;99.90;;;;;;6238643;23;20147;-85
2023/01/29 10:53:08;;;;;;;7.95;4.75;;;2.60;99.90;;;;;;6244552;23;20171;-82
2023/01/29 10:56:00;;;;;;;9.75;4.65;;;2.60;99.90;;;;;;6237922;23;20397;-85
2023/01/29 10:58:48;;;;;;;5.40;4.82;;;2.70;99.90;;;;;;6239838;23;20224;-84
2023/01/29 11:01:14;;;;;;;9.70;5.80;;;3.10;99.90;;;;;;6242781;22;20361;-83
2023/01/29 11:03:40;;;;;;;9.03;5.33;;;3.10;99.90;;;;;;6234240;23;20864;-84
2023/01/29 11:06:34;;;;;;;9.03;6.03;;;2.70;99.90;;;;;;6242335;23;20422;-83
2023/01/29 11:09:09;;;;;;;6.80;4.45;;;2.50;99.90;;;;;;6238657;23;20845;-83
2023/01/29 11:11:52;;;;;;;6.20;4.38;;;2.30;99.90;;;;;;6235529;23;20315;-85
2023/01/29 11:14:22;;;;;;;7.47;4.97;;;2.30;99.90;;;;;;6234289;23;20858;-85
2023/01/29 11:16:47;;;;;;;6.85;5.25;;;2.30;99.90;;;;;;6238522;23;20183;-86
2023/01/29 11:19:14;;;;;;;6.93;4.63;;;2.40;99.90;;;;;;6240096;23;20184;-86
2023/01/29 11:21:57;;;;;;;6.18;4.57;;;2.80;99.90;;;;;;6239310;22;20443;-84
2023/01/29 11:24:24;;;;;;;7.85;5.35;;;2.80;99.90;;;;;;6235495;23;20156;-84
2023/01/29 11:26:52;;;;;;;6.63;5.15;;;2.80;99.90;;;;;;6241654;22;20222;-83
2023/01/29 11:29:33;;;;;;;7.63;4.90;;;2.80;99.90;;;;;;6238142;22;20587;-84
2023/01/29 11:32:02;;;;;;;7.75;5.60;;;2.90;99.90;;;;;;6236094;23;20175;-84
2023/01/29 11:34:29;;;;;;;9.13;6.68;;;3.10;99.90;;;;;;6237102;23;20152;-85
2023/01/29 11:37:03;;;;;;;8.82;6.10;;;3.40;99.90;;;;;;6239319;22;20183;-83
2023/01/29 11:39:31;;;;;;;6.95;5.25;;;3.30;99.90;;;;;;6239425;22;20618;-83
2023/01/29 11:42:02;;;;;;;9.02;5.40;;;3.70;99.90;;;;;;6240463;22;20145;-83
2023/01/29 11:44:42;;;;;;;8.93;6.57;;;3.70;99.90;;;;;;6234164;23;20145;-82
2023/01/29 11:47:13;;;;;;;8.32;5.75;;;3.20;99.90;;;;;;6237768;23;20140;-82
2023/01/29 11:49:45;;;;;;;16.17;9.70;;;2.80;99.90;;;;;;6234267;23;20278;-82
2023/01/29 11:52:14;;;;;;;9.90;6.63;;;2.80;99.90;;;;;;6232305;23;20151;-83
2023/01/29 11:54:53;;;;;;;7.25;6.07;;;2.90;99.90;;;;;;6237883;23;20164;-83
2023/01/29 11:57:30;;;;;;;8.63;6.20;;;3.00;99.90;;;;;;6252377;23;20145;-82
2023/01/29 12:00:00;;;;;;;7.47;5.30;;;2.90;99.90;;;;;;6255317;22;20168;-82
2023/01/29 12:02:42;;;;;;;10.15;6.57;;;3.30;99.90;;;;;;6244085;22;20379;-81
2023/01/29 12:05:15;;;;;;;8.70;6.00;;;3.30;99.90;;;;;;6238924;23;20168;-82
2023/01/29 12:07:44;;;;;;;18.95;5.65;;;2.90;99.90;;;;;;6243811;22;20144;-83
2023/01/29 12:10:32;;;;;;;8.32;5.78;;;2.90;99.90;;;;;;6238977;22;20227;-83
2023/01/29 12:13:24;;;;;;;8.02;6.10;;;3.50;99.90;;;;;;6238624;23;20226;-83
2023/01/29 12:16:24;;;;;;;7.25;5.15;;;3.80;99.90;;;;;;6240328;22;20172;-81
2023/01/29 12:19:04;;;;;;;7.65;5.85;;;4.00;99.90;;;;;;6267179;22;20172;-80
2023/01/29 12:21:45;;;;;;;9.57;6.03;;;3.60;99.90;;;;;;6240071;23;20147;-84
2023/01/29 12:24:24;;;;;;;9.93;5.97;;;3.50;99.90;;;;;;6242020;23;20637;-85
2023/01/29 12:26:56;;;;;;;9.15;6.28;;;3.80;99.90;;;;;;6239392;23;20171;-82
2023/01/29 12:29:39;;;;;;;9.27;5.93;;;3.00;99.90;;;;;;6244685;22;20132;-85
2023/01/29 12:32:24;;;;;;;11.27;6.30;;;2.70;99.90;;;;;;6245983;23;20156;-82
2023/01/29 12:35:00;;;;;;;8.10;6.18;;;3.00;99.90;;;;;;6243955;23;20204;-84
2023/01/29 12:37:37;;;;;;;9.57;6.60;;;3.40;99.90;;;;;;6247361;22;20137;-79
2023/01/29 12:40:15;;;;;;;7.15;5.82;;;3.20;99.90;;;;;;6249054;23;20205;-84
2023/01/29 12:42:45;;;;;;;9.27;5.72;;;2.90;99.90;;;;;;6246946;22;20191;-84
2023/01/29 12:45:16;;;;;;;11.55;5.97;;;3.30;99.90;;;;;;6247343;22;20169;-81
2023/01/29 12:47:50;;;;;;;6.53;5.35;;;3.50;99.90;;;;;;6249348;22;20167;-82
2023/01/29 12:50:31;;;;;;;8.45;6.28;;;3.70;99.90;;;;;;6241901;22;20144;-85
2023/01/29 12:53:16;;;;;;;11.00;7.00;;;3.60;99.90;;;;;;6248059;22;20283;-83
2023/01/29 12:55:52;;;;;;;9.70;5.80;;;3.70;99.90;;;;;;6247551;22;20169;-83
2023/01/29 12:58:29;;;;;;;10.27;6.28;;;3.90;99.90;;;;;;6245640;23;20183;-84
2023/01/29 13:01:01;;;;;;;8.52;6.05;;;4.40;99.90;;;;;;6246960;22;20168;-84
2023/01/29 13:04:08;;;;;;;10.75;6.55;;;4.60;99.90;;;;;;6243677;23;20148;-83
2023/01/29 13:06:45;;;;;;;10.32;5.38;;;4.30;99.90;;;;;;6257204;23;20169;-80
2023/01/29 13:09:15;;;;;;;8.73;6.68;;;3.40;99.90;;;;;;6259811;22;20133;-84
2023/01/29 13:11:47;;;;;;;9.75;6.70;;;3.40;99.90;;;;;;6246505;23;20456;-85
2023/01/29 13:14:21;;;;;;;9.93;6.45;;;3.10;99.90;;;;;;6249063;23;20155;-84
2023/01/29 13:16:51;;;;;;;8.95;5.85;;;3.00;99.90;;;;;;6248741;22;20841;-82
2023/01/29 13:19:30;;;;;;;15.05;7.15;;;3.00;99.90;;;;;;6246477;22;20196;-85
2023/01/29 13:21:59;;;;;;;11.85;6.63;;;3.00;99.90;;;;;;6237300;23;20144;-83
2023/01/29 13:24:33;;;;;;;8.27;6.38;;;3.10;99.90;;;;;;6246000;22;20156;-82
2023/01/29 13:26:59;;;;;;;13.05;6.90;;;3.20;99.90;;;;;;6261371;22;20549;-83
2023/01/29 13:29:28;;;;;;;16.70;8.10;;;2.90;99.90;;;;;;6247413;23;20171;-84
2023/01/29 13:32:03;;;;;;;13.25;7.00;;;2.90;99.90;;;;;;6246856;23;20176;-85
2023/01/29 13:34:36;;;;;;;10.35;6.93;;;3.20;99.90;;;;;;6244868;23;20187;-82
2023/01/29 13:37:08;;;;;;;13.07;6.30;;;3.20;99.90;;;;;;6249572;23;20300;-84
2023/01/29 13:39:47;;;;;;;12.05;6.82;;;3.20;99.90;;;;;;6243413;23;20180;-84
2023/01/29 13:42:17;;;;;;;9.32;6.28;;;3.30;99.90;;;;;;6248433;22;20132;-83
2023/01/29 13:44:49;;;;;;;9.85;6.00;;;3.70;99.90;;;;;;6244134;22;20197;-82
2023/01/29 13:47:33;;;;;;;9.23;6.00;;;3.80;99.90;;;;;;6246714;23;20200;-85
2023/01/29 13:50:03;;;;;;;11.80;6.90;;;4.10;99.90;;;;;;6241497;23;20248;-83